Time,TemperatureF,DewpointF,PressureIn,WindDirection,WindDirectionDegrees,WindSpeedMPH,WindSpeedGustMPH,Humidity,HourlyPrecipIn,Conditions,Clouds,dailyrainin,SoftwareType,DateUTC
2013-02-06 00:10:00,41.7,37.5,30.10,South,180,3.4,12.5,85,0.00,,,0.14,open2300-1.11,2013-02-06 08:10:00,
2013-02-06 00:20:00,41.7,37.5,30.10,South,180,0.0,10.5,85,0.00,,,0.14,open2300-1.11,2013-02-06 08:20:00,
2013-02-06 00:30:00,41.5,37.3,30.11,SSW,202,3.4,8.3,85,0.00,,,0.14,open2300-1.11,2013-02-06 08:30:00,
2013-02-06 00:40:00,41.7,37.8,30.11,South,180,5.8,8.7,86,0.00,,,0.14,open2300-1.11,2013-02-06 08:40:00,
2013-02-06 00:50:00,41.9,38.0,30.11,SSW,202,0.0,9.2,86,0.00,,,0.14,open2300-1.11,2013-02-06 08:50:00,
2013-02-06 01:10:00,42.4,38.5,30.11,South,180,6.0,11.6,86,0.00,,,0.14,open2300-1.11,2013-02-06 09:10:00,
2013-02-06 01:20:00,42.6,38.7,30.12,SSW,202,6.5,11.0,86,0.00,,,0.14,open2300-1.11,2013-02-06 09:20:00,
2013-02-06 01:30:00,42.6,38.7,30.12,South,180,0.0,11.9,86,0.00,,,0.14,open2300-1.11,2013-02-06 09:30:00,
2013-02-06 01:40:00,42.6,38.7,30.12,South,180,8.1,10.7,86,0.00,,,0.14,open2300-1.11,2013-02-06 09:40:00,
2013-02-06 01:50:00,42.6,38.7,30.12,SSW,202,8.7,9.2,86,0.00,,,0.14,open2300-1.11,2013-02-06 09:50:00,
2013-02-06 02:10:00,41.9,38.0,30.12,SSW,202,6.3,10.7,86,0.00,,,0.14,open2300-1.11,2013-02-06 10:10:00,
2013-02-06 02:20:00,41.7,37.8,30.12,SSE,157,3.4,11.9,86,0.00,,,0.14,open2300-1.11,2013-02-06 10:20:00,
2013-02-06 02:30:00,41.7,37.8,30.12,South,180,7.2,9.6,86,0.00,,,0.14,open2300-1.11,2013-02-06 10:30:00,
2013-02-06 02:40:00,41.7,37.8,30.12,South,180,7.2,7.8,86,0.00,,,0.14,open2300-1.11,2013-02-06 10:40:00,
2013-02-06 02:50:00,41.7,37.8,30.12,South,180,0.0,0.0,86,0.00,,,0.14,open2300-1.11,2013-02-06 10:50:00,
2013-02-06 03:10:00,42.4,38.8,30.12,SSW,202,6.5,114.1,87,0.00,,,0.14,open2300-1.11,2013-02-06 11:10:00,
2013-02-06 03:20:00,42.6,39.0,30.12,SSE,157,5.8,9.8,87,0.00,,,0.14,open2300-1.11,2013-02-06 11:20:00,
2013-02-06 03:30:00,42.6,39.0,30.12,South,180,6.3,11.4,87,0.00,,,0.14,open2300-1.11,2013-02-06 11:30:00,
2013-02-06 03:40:00,42.6,39.0,30.13,South,180,2.9,13.4,87,0.00,,,0.14,open2300-1.11,2013-02-06 11:40:00,
2013-02-06 03:50:00,42.8,39.2,30.13,South,180,2.9,11.2,87,0.00,,,0.14,open2300-1.11,2013-02-06 11:50:00,
2013-02-06 04:10:00,42.6,39.0,30.13,South,180,9.6,11.9,87,0.00,,,0.14,open2300-1.11,2013-02-06 12:10:00,
2013-02-06 04:20:00,42.4,38.5,30.13,South,180,4.0,13.6,86,0.00,,,0.14,open2300-1.11,2013-02-06 12:20:00,
2013-02-06 04:30:00,41.9,38.0,30.12,SSE,157,5.4,11.4,86,0.00,,,0.14,open2300-1.11,2013-02-06 12:30:00,
2013-02-06 04:40:00,41.9,38.0,30.13,SSE,157,0.0,0.0,86,0.00,,,0.14,open2300-1.11,2013-02-06 12:40:00,
2013-02-06 04:50:00,42.1,38.2,30.13,South,180,0.0,0.0,86,0.00,,,0.14,open2300-1.11,2013-02-06 12:50:00,
2013-02-06 05:10:00,42.4,38.5,30.13,South,180,5.6,114.1,86,0.00,,,0.10,open2300-1.11,2013-02-06 13:10:00,
2013-02-06 05:20:00,42.1,38.2,30.12,SSE,157,0.0,11.0,86,0.00,,,0.10,open2300-1.11,2013-02-06 13:20:00,
2013-02-06 05:30:00,41.7,37.8,30.12,SSE,157,0.0,0.0,86,0.00,,,0.10,open2300-1.11,2013-02-06 13:30:00,
2013-02-06 05:40:00,41.5,37.6,30.12,South,180,0.0,0.0,86,0.00,,,0.10,open2300-1.11,2013-02-06 13:40:00,
2013-02-06 05:50:00,41.4,37.4,30.12,South,180,0.0,0.0,86,0.00,,,0.10,open2300-1.11,2013-02-06 13:50:00,
2013-02-06 06:00:00,41.4,37.4,30.12,South,180,0.0,0.0,86,0.00,,,0.08,open2300-1.11,2013-02-06 14:00:00,
2013-02-06 06:10:00,41.5,37.9,30.11,South,180,0.0,0.0,87,0.00,,,0.08,open2300-1.11,2013-02-06 14:10:00,
2013-02-06 06:20:00,41.9,38.3,30.11,South,180,0.0,0.0,87,0.00,,,0.08,open2300-1.11,2013-02-06 14:20:00,
2013-02-06 06:30:00,42.1,38.5,30.12,South,180,0.0,0.0,87,0.00,,,0.08,open2300-1.11,2013-02-06 14:30:00,
2013-02-06 06:40:00,42.6,39.0,30.12,SSE,157,0.0,0.0,87,0.00,,,0.08,open2300-1.11,2013-02-06 14:40:00,
2013-02-06 06:50:00,42.6,39.0,30.12,South,180,0.0,8.1,87,0.00,,,0.08,open2300-1.11,2013-02-06 14:50:00,
2013-02-06 07:00:00,43.0,39.1,30.12,South,180,4.5,10.1,86,0.00,,,0.08,open2300-1.11,2013-02-06 15:00:00,
2013-02-06 07:10:00,43.2,39.2,30.12,SSE,157,2.9,11.2,86,0.00,,,0.08,open2300-1.11,2013-02-06 15:10:00,
2013-02-06 07:20:00,43.2,38.9,30.12,South,180,2.5,8.5,85,0.00,,,0.08,open2300-1.11,2013-02-06 15:20:00,
2013-02-06 07:30:00,43.3,39.1,30.12,South,180,6.5,8.7,85,0.00,,,0.08,open2300-1.11,2013-02-06 15:30:00,
2013-02-06 07:40:00,43.3,39.1,30.12,SSE,157,0.0,8.5,85,0.00,,,0.08,open2300-1.11,2013-02-06 15:40:00,
2013-02-06 07:50:00,43.5,39.0,30.12,SSE,157,0.0,8.3,84,0.00,,,0.08,open2300-1.11,2013-02-06 15:50:00,
2013-02-06 08:00:00,43.5,39.0,30.12,SE,135,4.5,8.1,84,0.00,,,0.08,open2300-1.11,2013-02-06 16:00:00,
2013-02-06 08:10:00,43.5,39.0,30.12,SSE,157,0.0,8.3,84,0.00,,,0.08,open2300-1.11,2013-02-06 16:10:00,
2013-02-06 08:20:00,43.9,39.3,30.12,SSE,157,0.0,8.5,84,0.00,,,0.08,open2300-1.11,2013-02-06 16:20:00,
2013-02-06 08:30:00,44.2,39.4,30.12,ESE,112,0.0,7.4,83,0.00,,,0.08,open2300-1.11,2013-02-06 16:30:00,
2013-02-06 08:40:00,44.4,39.6,30.12,SSE,157,3.4,10.7,83,0.00,,,0.08,open2300-1.11,2013-02-06 16:40:00,
2013-02-06 08:50:00,44.4,39.3,30.12,SE,135,7.2,8.7,82,0.00,,,0.08,open2300-1.11,2013-02-06 16:50:00,
2013-02-06 09:00:00,44.8,39.6,30.13,SE,135,4.9,8.7,82,0.00,,,0.08,open2300-1.11,2013-02-06 17:00:00,
2013-02-06 09:10:00,45.0,39.8,30.12,SE,135,5.4,7.4,82,0.00,,,0.08,open2300-1.11,2013-02-06 17:10:00,
2013-02-06 09:20:00,45.3,40.2,30.12,South,180,0.0,8.3,82,0.00,,,0.08,open2300-1.11,2013-02-06 17:20:00,
2013-02-06 09:30:00,45.9,40.7,30.12,SSE,157,0.0,7.2,82,0.00,,,0.08,open2300-1.11,2013-02-06 17:30:00,
2013-02-06 09:40:00,46.2,40.8,30.12,South,180,0.0,8.3,81,0.00,,,0.08,open2300-1.11,2013-02-06 17:40:00,
2013-02-06 09:50:00,46.6,40.8,30.12,SSW,202,0.0,8.1,80,0.00,,,0.08,open2300-1.11,2013-02-06 17:50:00,
2013-02-06 10:00:00,46.9,41.1,30.12,South,180,5.8,8.1,80,0.00,,,0.08,open2300-1.11,2013-02-06 18:00:00,
2013-02-06 10:10:00,47.3,41.5,30.12,South,180,5.6,8.5,80,0.00,,,0.08,open2300-1.11,2013-02-06 18:10:00,
2013-02-06 10:20:00,47.5,41.3,30.11,SE,135,0.0,8.9,79,0.00,,,0.08,open2300-1.11,2013-02-06 18:20:00,
2013-02-06 10:30:00,47.8,41.2,30.11,SSE,157,7.6,8.5,78,0.00,,,0.08,open2300-1.11,2013-02-06 18:30:00,
2013-02-06 10:40:00,48.0,41.1,30.11,South,180,0.0,8.7,77,0.00,,,0.08,open2300-1.11,2013-02-06 18:40:00,
2013-02-06 10:50:00,48.4,41.4,30.11,SSE,157,6.3,9.4,77,0.00,,,0.08,open2300-1.11,2013-02-06 18:50:00,
2013-02-06 11:00:00,49.1,41.8,30.11,South,180,7.6,9.6,76,0.00,,,0.08,open2300-1.11,2013-02-06 19:00:00,
2013-02-06 11:10:00,49.6,42.3,30.10,South,180,5.8,10.3,76,0.00,,,0.08,open2300-1.11,2013-02-06 19:10:00,
2013-02-06 11:20:00,50.2,42.5,30.10,South,180,8.1,10.3,75,0.00,,,0.08,open2300-1.11,2013-02-06 19:20:00,
2013-02-06 11:30:00,50.7,42.4,30.10,SSW,202,11.0,13.4,73,0.00,,,0.08,open2300-1.11,2013-02-06 19:30:00,
2013-02-06 11:40:00,51.1,42.4,30.09,SE,135,3.4,14.5,72,0.00,,,0.08,open2300-1.11,2013-02-06 19:40:00,
2013-02-06 11:50:00,51.4,42.4,30.08,SSW,202,6.7,13.0,71,0.00,,,0.08,open2300-1.11,2013-02-06 19:50:00,
2013-02-06 12:00:00,51.6,42.3,30.08,ESE,112,8.5,11.9,70,0.00,,,0.08,open2300-1.11,2013-02-06 20:00:00,
2013-02-06 12:10:00,51.6,42.3,30.08,SSW,202,10.1,15.9,70,0.00,,,0.08,open2300-1.11,2013-02-06 20:10:00,
2013-02-06 12:20:00,52.0,42.6,30.07,SSW,202,7.6,12.8,70,0.00,,,0.08,open2300-1.11,2013-02-06 20:20:00,
2013-02-06 12:30:00,52.3,42.5,30.07,SE,135,6.9,16.1,69,0.00,,,0.08,open2300-1.11,2013-02-06 20:30:00,
2013-02-06 12:40:00,52.7,42.8,30.06,SE,135,10.5,11.9,69,0.00,,,0.08,open2300-1.11,2013-02-06 20:40:00,
2013-02-06 12:50:00,52.9,42.6,30.05,South,180,7.4,12.8,68,0.00,,,0.08,open2300-1.11,2013-02-06 20:50:00,
2013-02-06 13:00:00,53.2,42.5,30.05,South,180,2.9,14.3,67,0.00,,,0.08,open2300-1.11,2013-02-06 21:00:00,
2013-02-06 13:10:00,53.8,42.2,30.05,South,180,8.9,16.3,65,0.00,,,0.08,open2300-1.11,2013-02-06 21:10:00,
2013-02-06 13:20:00,53.8,42.2,30.04,SSW,202,9.2,14.5,65,0.00,,,0.08,open2300-1.11,2013-02-06 21:20:00,
2013-02-06 13:30:00,54.1,42.2,30.03,SSE,157,7.2,16.5,64,0.00,,,0.08,open2300-1.11,2013-02-06 21:30:00,
2013-02-06 13:40:00,54.0,41.2,30.03,South,180,9.2,17.7,62,0.00,,,0.08,open2300-1.11,2013-02-06 21:40:00,
2013-02-06 13:50:00,53.8,41.0,30.03,SSW,202,6.5,15.7,62,0.00,,,0.08,open2300-1.11,2013-02-06 21:50:00,
2013-02-06 14:00:00,54.0,41.2,30.02,South,180,8.5,12.8,62,0.00,,,0.08,open2300-1.11,2013-02-06 22:00:00,
2013-02-06 14:10:00,54.1,41.4,30.01,South,180,11.4,12.1,62,0.00,,,0.08,open2300-1.11,2013-02-06 22:10:00,
2013-02-06 14:20:00,54.1,41.4,30.01,SW,225,8.1,13.2,62,0.00,,,0.08,open2300-1.11,2013-02-06 22:20:00,
2013-02-06 14:30:00,54.0,40.8,30.00,SSW,202,10.5,17.9,61,0.00,,,0.08,open2300-1.11,2013-02-06 22:30:00,
2013-02-06 14:40:00,53.2,40.9,30.00,South,180,2.0,12.5,63,0.00,,,0.08,open2300-1.11,2013-02-06 22:40:00,
2013-02-06 14:50:00,52.2,40.7,30.00,SSW,202,3.1,12.5,65,0.00,,,0.08,open2300-1.11,2013-02-06 22:50:00,
2013-02-06 15:00:00,51.8,40.8,30.00,SSW,202,6.5,8.5,66,0.00,,,0.08,open2300-1.11,2013-02-06 23:00:00,
2013-02-06 15:10:00,52.0,41.0,30.00,SW,225,7.4,8.5,66,0.00,,,0.08,open2300-1.11,2013-02-06 23:10:00,
2013-02-06 15:20:00,52.0,41.4,30.00,SSW,202,0.0,9.2,67,0.00,,,0.08,open2300-1.11,2013-02-06 23:20:00,
2013-02-06 15:30:00,52.2,41.5,30.00,SSW,202,0.0,7.8,67,0.00,,,0.08,open2300-1.11,2013-02-06 23:30:00,
2013-02-06 15:40:00,52.0,41.4,29.99,South,180,6.9,8.7,67,0.00,,,0.08,open2300-1.11,2013-02-06 23:40:00,
2013-02-06 15:50:00,51.4,40.8,29.99,SW,225,3.1,9.2,67,0.00,,,0.08,open2300-1.11,2013-02-06 23:50:00,
2013-02-06 16:00:00,51.4,40.8,29.99,SSW,202,7.8,8.9,67,0.00,,,0.06,open2300-1.11,2013-02-07 00:00:00,
2013-02-06 16:10:00,51.3,41.1,29.98,SSW,202,3.1,7.8,68,0.00,,,0.06,open2300-1.11,2013-02-07 00:10:00,
2013-02-06 16:20:00,51.1,40.5,29.98,SW,225,3.6,7.6,67,0.00,,,0.06,open2300-1.11,2013-02-07 00:20:00,
2013-02-06 16:30:00,50.7,40.5,29.97,South,180,0.0,8.3,68,0.00,,,0.06,open2300-1.11,2013-02-07 00:30:00,
2013-02-06 16:40:00,50.5,40.8,29.96,SSE,157,0.0,3.4,69,0.00,,,0.06,open2300-1.11,2013-02-07 00:40:00,
2013-02-06 16:50:00,49.8,40.1,29.96,ESE,112,0.0,3.8,69,0.00,,,0.06,open2300-1.11,2013-02-07 00:50:00,
2013-02-06 17:00:00,49.6,40.3,29.96,ESE,112,0.0,0.0,70,0.00,,,0.02,open2300-1.11,2013-02-07 01:00:00,
2013-02-06 17:10:00,49.1,40.1,29.96,East,90,0.0,0.0,71,0.00,,,0.02,open2300-1.11,2013-02-07 01:10:00,
2013-02-06 17:20:00,48.9,40.2,29.96,ESE,112,0.0,0.0,72,0.00,,,0.02,open2300-1.11,2013-02-07 01:20:00,
2013-02-06 17:30:00,48.6,40.2,29.96,ESE,112,0.0,0.0,73,0.00,,,0.02,open2300-1.11,2013-02-07 01:30:00,
2013-02-06 17:40:00,48.4,40.0,29.95,SSE,157,0.0,0.0,73,0.00,,,0.02,open2300-1.11,2013-02-07 01:40:00,
2013-02-06 17:50:00,48.0,40.4,29.95,SSE,157,0.0,6.3,75,0.00,,,0.02,open2300-1.11,2013-02-07 01:50:00,
2013-02-06 18:00:00,48.0,40.4,29.95,South,180,0.0,8.3,75,0.00,,,0.00,open2300-1.11,2013-02-07 02:00:00,
2013-02-06 18:10:00,48.0,40.4,29.95,South,180,5.1,7.8,75,0.00,,,0.00,open2300-1.11,2013-02-07 02:10:00,
2013-02-06 18:20:00,48.0,40.4,29.94,South,180,6.5,6.9,75,0.00,,,0.00,open2300-1.11,2013-02-07 02:20:00,
2013-02-06 18:30:00,47.8,40.2,29.94,SSW,202,0.0,6.5,75,0.00,,,0.00,open2300-1.11,2013-02-07 02:30:00,
2013-02-06 18:40:00,47.5,39.9,29.93,South,180,0.0,6.7,75,0.00,,,0.00,open2300-1.11,2013-02-07 02:40:00,
2013-02-06 18:50:00,47.1,39.9,29.93,SSE,157,0.0,6.9,76,0.00,,,0.00,open2300-1.11,2013-02-07 02:50:00,
2013-02-06 19:00:00,46.9,39.8,29.92,SE,135,0.0,7.8,76,0.00,,,0.00,open2300-1.11,2013-02-07 03:00:00,
2013-02-06 19:10:00,46.6,39.4,29.91,SSE,157,5.1,6.9,76,0.00,,,0.00,open2300-1.11,2013-02-07 03:10:00,
2013-02-06 19:20:00,46.6,39.4,29.91,South,180,1.6,6.9,76,0.00,,,0.00,open2300-1.11,2013-02-07 03:20:00,
2013-02-06 19:30:00,46.2,39.1,29.91,SSE,157,0.0,6.7,76,0.00,,,0.00,open2300-1.11,2013-02-07 03:30:00,
2013-02-06 19:40:00,46.2,39.1,29.90,SSE,157,0.4,7.4,76,0.00,,,0.00,open2300-1.11,2013-02-07 03:40:00,
2013-02-06 19:50:00,46.2,39.1,29.90,SSE,157,0.0,6.3,76,0.00,,,0.00,open2300-1.11,2013-02-07 03:50:00,
2013-02-06 20:00:00,46.0,38.9,29.89,SE,135,0.0,2.5,76,0.00,,,0.00,open2300-1.11,2013-02-07 04:00:00,
2013-02-06 20:10:00,46.0,39.2,29.89,SE,135,0.0,0.0,77,0.00,,,0.00,open2300-1.11,2013-02-07 04:10:00,
2013-02-06 20:20:00,46.0,39.6,29.89,ESE,112,0.0,0.0,78,0.00,,,0.00,open2300-1.11,2013-02-07 04:20:00,
2013-02-06 20:30:00,45.7,39.2,29.89,SE,135,0.0,2.5,78,0.00,,,0.00,open2300-1.11,2013-02-07 04:30:00,
2013-02-06 20:40:00,45.7,39.2,29.88,SE,135,0.0,2.2,78,0.00,,,0.00,open2300-1.11,2013-02-07 04:40:00,
2013-02-06 20:50:00,45.7,39.2,29.88,SSE,157,0.0,7.2,78,0.00,,,0.00,open2300-1.11,2013-02-07 04:50:00,
2013-02-06 21:00:00,45.7,39.2,29.88,SE,135,0.0,0.7,78,0.00,,,0.00,open2300-1.11,2013-02-07 05:00:00,
2013-02-06 21:10:00,45.7,39.2,29.88,SSW,202,19.0,21.5,78,0.00,,,0.00,open2300-1.11,2013-02-07 05:10:00,
2013-02-06 21:20:00,46.2,39.1,29.88,South,180,7.8,19.0,76,0.00,,,0.00,open2300-1.11,2013-02-07 05:20:00,
2013-02-06 21:30:00,46.6,39.4,29.88,SSE,157,15.0,15.0,76,0.00,,,0.00,open2300-1.11,2013-02-07 05:30:00,
2013-02-06 21:40:00,46.9,39.1,29.87,SSE,157,5.4,15.0,74,0.00,,,0.00,open2300-1.11,2013-02-07 05:40:00,
2013-02-06 21:50:00,47.3,39.1,29.88,South,180,7.8,15.2,73,0.02,,,0.02,open2300-1.11,2013-02-07 05:50:00,
2013-02-06 22:00:00,47.3,39.4,29.89,South,180,8.7,15.4,74,0.02,,,0.02,open2300-1.11,2013-02-07 06:00:00,
2013-02-06 22:10:00,46.9,39.4,29.90,SW,225,7.2,12.8,75,0.02,,,0.02,open2300-1.11,2013-02-07 06:10:00,
2013-02-06 22:20:00,46.6,39.4,29.92,SSW,202,10.1,12.8,76,0.02,,,0.02,open2300-1.11,2013-02-07 06:20:00,
2013-02-06 22:30:00,46.0,39.6,29.92,South,180,5.8,16.3,78,0.02,,,0.02,open2300-1.11,2013-02-07 06:30:00,
2013-02-06 22:40:00,45.3,38.9,29.93,SW,225,11.9,16.5,78,0.00,,,0.02,open2300-1.11,2013-02-07 06:40:00,
2013-02-06 22:50:00,44.4,38.0,29.94,SW,225,6.0,19.0,78,0.00,,,0.02,open2300-1.11,2013-02-07 06:50:00,
2013-02-06 23:10:00,43.0,36.9,29.95,SW,225,0.0,7.8,79,0.02,,,0.04,open2300-1.11,2013-02-07 07:10:00,
2013-02-06 23:20:00,42.6,36.5,29.96,SW,225,7.8,7.8,79,0.02,,,0.04,open2300-1.11,2013-02-07 07:20:00,
2013-02-06 23:30:00,42.4,36.4,29.96,SW,225,2.9,7.8,79,0.02,,,0.04,open2300-1.11,2013-02-07 07:30:00,
2013-02-06 23:40:00,42.4,36.7,29.97,South,180,0.0,6.3,80,0.02,,,0.04,open2300-1.11,2013-02-07 07:40:00,
2013-02-06 23:50:00,42.1,36.3,29.97,South,180,3.6,6.9,80,0.02,,,0.04,open2300-1.11,2013-02-07 07:50:00,